Time;durP1;ratioP1;P1;durP2;ratioP2;P2;SDS_P1;SDS_P2;PMS_P1;PMS_P2;Temp;Humidity;BMP_temperature;BMP_pressure;BME280_temperature;BME280_humidity;BME280_pressure;Samples;Min_cycle;Max_cycle;Signal;HPM_P1;HPM_P2
2022/07/19 00:00:08;;;;;;;65.90;52.63;;;27.30;52.20;;;;;;5001555;27;95369;-54
2022/07/19 00:02:35;;;;;;;64.82;52.60;;;27.30;52.30;;;;;;4996930;27;101211;-55
2022/07/19 00:05:01;;;;;;;65.07;52.20;;;27.30;52.30;;;;;;5002918;27;95422;-51
2022/07/19 00:07:26;;;;;;;65.45;52.53;;;27.30;52.30;;;;;;5010696;27;94091;-52
2022/07/19 00:09:52;;;;;;;64.75;52.90;;;27.30;52.40;;;;;;4998013;27;99756;-53
2022/07/19 00:12:17;;;;;;;64.68;52.78;;;27.30;52.40;;;;;;5000835;27;95092;-52
2022/07/19 00:14:43;;;;;;;66.00;52.75;;;27.30;52.40;;;;;;4997120;27;96955;-53
2022/07/19 00:17:09;;;;;;;64.28;52.55;;;27.30;52.50;;;;;;4975931;27;96143;-54
2022/07/19 00:19:34;;;;;;;64.43;52.53;;;27.30;52.40;;;;;;5002349;27;101061;-55
2022/07/19 00:22:00;;;;;;;64.63;52.70;;;27.30;52.50;;;;;;4997617;27;97575;-56
2022/07/19 00:24:26;;;;;;;64.07;52.47;;;27.30;52.50;;;;;;5005178;27;95049;-52
2022/07/19 00:26:51;;;;;;;65.68;52.80;;;27.20;52.60;;;;;;5000587;27;95366;-55
2022/07/19 00:29:17;;;;;;;64.47;52.60;;;27.20;52.60;;;;;;5008519;27;99739;-55
2022/07/19 00:31:43;;;;;;;64.97;52.55;;;27.20;52.60;;;;;;4991034;27;98688;-53
2022/07/19 00:34:08;;;;;;;65.15;52.47;;;27.20;52.60;;;;;;5003168;27;95265;-53
2022/07/19 00:36:34;;;;;;;63.78;52.45;;;27.20;52.70;;;;;;4999585;27;96083;-54
2022/07/19 00:39:00;;;;;;;65.57;52.72;;;27.20;52.80;;;;;;5009399;27;100937;-55
2022/07/19 00:41:25;;;;;;;64.40;52.47;;;27.20;52.80;;;;;;4998684;27;96187;-54
2022/07/19 00:43:51;;;;;;;64.88;52.58;;;27.20;52.80;;;;;;5010576;27;102548;-52
2022/07/19 00:46:19;;;;;;;64.38;52.63;;;27.10;52.70;;;;;;5010619;27;100544;-55
2022/07/19 00:48:46;;;;;;;64.22;52.55;;;27.20;52.80;;;;;;5012112;27;99816;-56
2022/07/19 00:51:14;;;;;;;64.90;52.45;;;27.20;52.80;;;;;;5003242;27;95404;-52
2022/07/19 00:53:40;;;;;;;63.45;52.28;;;27.20;52.70;;;;;;4993409;27;95727;-53
2022/07/19 00:56:08;;;;;;;63.85;52.15;;;27.20;52.80;;;;;;5003284;27;95536;-55
2022/07/19 00:58:35;;;;;;;63.78;52.33;;;27.10;52.70;;;;;;5009052;27;96980;-49
2022/07/19 01:01:03;;;;;;;63.92;52.25;;;27.10;52.80;;;;;;5011519;27;95633;-52
2022/07/19 01:10:15;;;;;;;63.33;52.22;;;27.10;53.10;;;;;;5000189;27;96214;-55
2022/07/19 01:12:42;;;;;;;64.38;52.15;;;27.10;53.10;;;;;;5003415;27;100596;-53
2022/07/19 01:15:18;;;;;;;64.15;52.08;;;27.10;53.10;;;;;;4987320;27;99758;-52
2022/07/19 01:17:44;;;;;;;63.50;52.17;;;27.00;53.10;;;;;;5002380;27;95801;-55
2022/07/19 01:20:10;;;;;;;64.65;52.35;;;27.00;53.10;;;;;;5005469;27;97276;-55
2022/07/19 01:22:37;;;;;;;66.25;52.03;;;27.10;53.20;;;;;;5014736;27;95986;-55
2022/07/19 01:25:03;;;;;;;63.88;52.15;;;27.00;53.10;;;;;;5002871;27;95303;-53
2022/07/19 01:27:29;;;;;;;63.92;52.13;;;27.00;53.20;;;;;;4998442;27;95802;-53
2022/07/19 01:29:55;;;;;;;63.03;51.97;;;27.00;53.20;;;;;;5003654;27;100334;-53
2022/07/19 01:32:21;;;;;;;63.20;51.90;;;27.00;53.20;;;;;;5007138;27;95897;-51
2022/07/19 01:34:47;;;;;;;63.50;52.25;;;27.00;53.20;;;;;;4989921;27;97938;-52
2022/07/19 01:37:12;;;;;;;62.85;51.83;;;27.00;53.30;;;;;;4999933;27;96428;-55
2022/07/19 01:39:38;;;;;;;63.40;52.10;;;27.00;53.30;;;;;;5003377;27;98177;-54
2022/07/19 01:42:04;;;;;;;63.55;52.08;;;27.00;53.40;;;;;;4996642;27;97070;-53
2022/07/19 01:44:29;;;;;;;63.10;51.80;;;27.00;53.30;;;;;;5001024;27;95896;-52
2022/07/19 01:46:55;;;;;;;63.35;52.10;;;26.90;53.20;;;;;;5015186;27;95667;-56
2022/07/19 01:49:20;;;;;;;63.42;52.03;;;26.90;53.30;;;;;;5004983;27;95848;-53
2022/07/19 01:51:46;;;;;;;63.65;52.15;;;26.90;53.30;;;;;;5003174;27;97058;-54
2022/07/19 01:54:12;;;;;;;63.53;52.05;;;26.90;53.40;;;;;;4990385;27;100752;-49
2022/07/19 01:56:42;;;;;;;64.95;52.00;;;26.90;53.40;;;;;;5001952;27;95546;-55
2022/07/19 01:59:08;;;;;;;63.42;52.15;;;26.90;53.40;;;;;;5002854;27;95802;-55
2022/07/19 02:01:34;;;;;;;63.97;52.13;;;26.90;53.40;;;;;;5004349;27;95328;-52
2022/07/19 02:03:59;;;;;;;64.43;52.35;;;26.90;53.40;;;;;;4994199;27;96762;-52
2022/07/19 02:06:25;;;;;;;63.33;51.92;;;26.90;53.50;;;;;;5006385;27;96200;-54
2022/07/19 02:08:50;;;;;;;62.75;51.85;;;26.90;53.50;;;;;;4981820;27;96816;-55
2022/07/19 02:14:01;;;;;;;63.00;52.05;;;26.80;53.40;;;;;;5003338;27;99628;-53
2022/07/19 02:16:26;;;;;;;63.72;51.70;;;26.80;53.50;;;;;;5010188;27;95549;-52
2022/07/19 02:18:52;;;;;;;63.60;51.90;;;26.80;53.50;;;;;;5002476;27;98393;-55
2022/07/19 02:21:18;;;;;;;63.00;52.03;;;26.80;53.60;;;;;;5010001;27;97652;-55
2022/07/19 02:23:43;;;;;;;63.83;51.90;;;26.80;53.50;;;;;;4998746;27;99235;-51
2022/07/19 02:26:09;;;;;;;62.97;51.80;;;26.80;53.50;;;;;;4996459;27;97066;-52
2022/07/19 02:28:35;;;;;;;62.95;51.92;;;26.80;53.50;;;;;;4997528;27;100361;-55
2022/07/19 02:31:00;;;;;;;63.92;52.03;;;26.80;53.60;;;;;;4990530;27;99141;-51
2022/07/19 02:33:26;;;;;;;62.40;51.55;;;26.80;53.60;;;;;;5011661;27;95722;-54
2022/07/19 02:35:52;;;;;;;63.08;52.05;;;26.80;53.50;;;;;;5004253;27;95231;-55
2022/07/19 02:38:18;;;;;;;63.88;52.08;;;26.80;53.50;;;;;;5001438;27;96730;-53
2022/07/19 02:40:43;;;;;;;63.25;51.70;;;26.80;53.60;;;;;;5012772;27;95588;-53
2022/07/19 02:43:09;;;;;;;63.17;51.72;;;26.80;53.70;;;;;;5011040;27;96339;-54
2022/07/19 02:45:35;;;;;;;64.00;52.13;;;26.80;53.70;;;;;;5006578;27;95239;-49
2022/07/19 02:48:02;;;;;;;63.08;51.65;;;26.80;53.70;;;;;;5003666;27;97534;-55
2022/07/19 02:50:28;;;;;;;62.45;51.83;;;26.80;53.60;;;;;;4989867;27;97054;-52
2022/07/19 02:52:54;;;;;;;63.05;51.88;;;26.80;54.30;;;;;;5008345;27;100993;-53
2022/07/19 02:55:20;;;;;;;63.75;51.90;;;26.70;53.60;;;;;;5001816;27;96580;-56
2022/07/19 02:57:45;;;;;;;63.13;51.63;;;26.70;53.60;;;;;;5000830;27;97510;-50
2022/07/19 03:00:12;;;;;;;62.80;51.50;;;26.70;53.60;;;;;;5001028;27;95750;-55
2022/07/19 03:02:38;;;;;;;64.50;52.15;;;26.70;53.60;;;;;;4998283;27;95485;-55
2022/07/19 03:05:05;;;;;;;63.85;51.95;;;26.70;53.60;;;;;;4988091;27;98820;-55
2022/07/19 03:07:31;;;;;;;62.80;51.60;;;26.70;53.60;;;;;;5003232;27;97886;-54
2022/07/19 03:09:57;;;;;;;63.65;51.92;;;26.70;53.70;;;;;;5003730;27;95766;-54
2022/07/19 03:12:22;;;;;;;62.47;51.67;;;26.70;53.70;;;;;;4999035;27;95741;-56
2022/07/19 03:14:48;;;;;;;64.35;51.92;;;26.70;53.70;;;;;;4972793;27;95687;-53
2022/07/19 03:17:14;;;;;;;63.40;51.97;;;26.70;53.70;;;;;;4996934;27;95192;-50
2022/07/19 03:19:40;;;;;;;62.72;51.65;;;26.70;53.60;;;;;;5007135;27;95291;-55
2022/07/19 03:22:05;;;;;;;63.55;51.75;;;26.70;53.70;;;;;;4996756;27;95462;-51
2022/07/19 03:24:31;;;;;;;63.50;51.75;;;26.70;53.70;;;;;;4995101;27;96318;-53
2022/07/19 03:26:57;;;;;;;62.25;51.63;;;26.70;53.70;;;;;;4986309;27;96566;-54
2022/07/19 03:29:22;;;;;;;62.55;51.63;;;26.60;53.60;;;;;;4993411;27;100466;-51
2022/07/19 03:31:48;;;;;;;62.95;51.65;;;26.60;53.70;;;;;;4993302;27;100742;-52
2022/07/19 03:34:14;;;;;;;62.63;51.70;;;26.70;53.70;;;;;;5000259;27;95973;-50
2022/07/19 03:36:39;;;;;;;62.30;51.67;;;26.60;53.70;;;;;;4999889;27;97623;-53
2022/07/19 03:39:05;;;;;;;61.88;51.58;;;26.70;53.70;;;;;;4996635;27;95514;-52
2022/07/19 03:41:31;;;;;;;61.95;51.47;;;26.60;53.70;;;;;;5006747;27;95531;-49
2022/07/19 03:43:56;;;;;;;61.60;51.53;;;26.60;53.70;;;;;;5000946;27;95314;-54
2022/07/19 03:46:22;;;;;;;62.17;51.53;;;26.60;53.70;;;;;;4997303;27;97196;-54
2022/07/19 03:48:48;;;;;;;62.33;51.50;;;26.60;53.70;;;;;;4999723;27;95490;-56
2022/07/19 03:51:14;;;;;;;63.20;51.78;;;26.60;53.80;;;;;;4997871;27;95302;-54
2022/07/19 03:53:40;;;;;;;62.33;51.58;;;26.60;53.80;;;;;;4999510;27;95402;-55
2022/07/19 03:56:06;;;;;;;62.45;51.45;;;26.60;53.90;;;;;;5006986;27;98703;-50
2022/07/19 03:58:32;;;;;;;62.55;51.55;;;26.60;53.80;;;;;;4959629;27;100961;-53
2022/07/19 04:00:58;;;;;;;62.22;51.55;;;26.50;53.80;;;;;;5000064;27;100473;-50
2022/07/19 04:03:23;;;;;;;62.42;51.53;;;26.60;53.80;;;;;;4995689;27;101754;-54
2022/07/19 04:05:49;;;;;;;63.35;51.60;;;26.50;53.80;;;;;;5002625;27;95805;-52
2022/07/19 04:08:15;;;;;;;63.05;51.63;;;26.60;53.90;;;;;;4999338;27;99357;-53
2022/07/19 04:10:41;;;;;;;61.95;51.60;;;26.50;53.80;;;;;;5002878;27;95899;-47
2022/07/19 04:13:07;;;;;;;62.13;51.45;;;26.50;53.80;;;;;;4982482;27;94532;-54
2022/07/19 04:15:33;;;;;;;62.38;51.53;;;26.50;53.80;;;;;;4997412;27;98013;-51
2022/07/19 04:17:59;;;;;;;62.65;51.50;;;26.50;53.90;;;;;;5000842;27;95066;-52
2022/07/19 04:20:24;;;;;;;61.83;51.38;;;26.50;54.40;;;;;;4997303;27;97003;-55
2022/07/19 04:22:50;;;;;;;62.42;51.58;;;26.50;53.80;;;;;;4990569;27;96019;-52
2022/07/19 04:25:16;;;;;;;62.40;51.55;;;26.50;53.90;;;;;;4996484;27;97757;-53
2022/07/19 04:27:41;;;;;;;62.47;51.53;;;26.50;53.90;;;;;;4991497;27;100207;-50
2022/07/19 04:30:07;;;;;;;62.20;51.40;;;26.50;53.90;;;;;;4984031;27;95255;-51
2022/07/19 04:32:33;;;;;;;61.85;51.58;;;26.50;53.90;;;;;;4992302;27;98400;-50
2022/07/19 04:35:00;;;;;;;62.42;51.40;;;26.50;53.90;;;;;;4994290;27;96435;-55
2022/07/19 04:37:26;;;;;;;62.60;51.55;;;26.50;53.90;;;;;;5001735;27;95169;-53
2022/07/19 04:39:51;;;;;;;62.15;51.53;;;26.50;53.80;;;;;;5003267;27;95197;-53
2022/07/19 04:42:18;;;;;;;63.10;51.42;;;26.50;53.90;;;;;;5007218;27;96402;-55
2022/07/19 04:44:44;;;;;;;61.80;51.40;;;26.50;53.90;;;;;;5009874;27;97347;-54
2022/07/19 04:47:09;;;;;;;62.30;51.53;;;26.50;53.90;;;;;;4986073;27;101384;-52
2022/07/19 04:49:35;;;;;;;63.78;51.58;;;26.50;53.90;;;;;;5002602;27;95501;-54
2022/07/19 04:52:01;;;;;;;61.85;51.30;;;26.50;53.90;;;;;;4992099;27;99876;-53
2022/07/19 04:54:27;;;;;;;61.88;51.45;;;26.50;54.00;;;;;;4997395;27;103384;-55
2022/07/19 04:56:52;;;;;;;61.85;51.35;;;26.40;53.80;;;;;;5008844;27;95151;-54
2022/07/19 04:59:18;;;;;;;61.88;51.45;;;26.50;53.90;;;;;;5010998;27;95375;-52
2022/07/19 05:01:44;;;;;;;64.25;51.72;;;26.50;53.90;;;;;;5007770;27;97018;-54
2022/07/19 05:04:10;;;;;;;62.63;51.63;;;26.50;53.90;;;;;;5003882;27;99935;-53
2022/07/19 05:06:35;;;;;;;62.28;51.35;;;26.50;54.00;;;;;;5007174;27;95654;-53
2022/07/19 05:09:01;;;;;;;63.33;51.67;;;26.50;53.90;;;;;;5005337;27;98108;-53
2022/07/19 05:11:27;;;;;;;62.13;51.35;;;26.50;54.00;;;;;;5010217;27;96017;-49
2022/07/19 05:13:52;;;;;;;61.97;51.50;;;26.50;54.00;;;;;;4999626;27;95606;-56
2022/07/19 05:16:18;;;;;;;62.28;51.58;;;26.50;54.10;;;;;;4994360;27;95685;-55
2022/07/19 05:18:44;;;;;;;61.65;51.42;;;26.50;54.10;;;;;;5002235;27;95716;-53
2022/07/19 05:21:09;;;;;;;62.28;51.50;;;26.50;54.00;;;;;;4999114;27;98319;-54
2022/07/19 05:23:35;;;;;;;62.83;51.63;;;26.40;54.10;;;;;;4983807;27;95658;-55
2022/07/19 05:26:00;;;;;;;62.30;51.95;;;26.40;54.10;;;;;;5003326;27;95224;-56
2022/07/19 05:28:26;;;;;;;62.97;51.80;;;26.50;54.10;;;;;;5007516;27;96016;-55
2022/07/19 05:30:52;;;;;;;62.05;51.65;;;26.50;54.10;;;;;;4999220;27;98208;-52
2022/07/19 05:33:17;;;;;;;62.42;51.63;;;26.50;54.10;;;;;;4999493;27;101918;-56
2022/07/19 05:35:43;;;;;;;62.03;51.72;;;26.50;54.10;;;;;;5005970;27;95977;-52
2022/07/19 05:38:09;;;;;;;62.35;51.55;;;26.50;54.10;;;;;;5002178;27;98656;-53
2022/07/19 05:40:34;;;;;;;62.65;51.88;;;26.50;54.10;;;;;;5009675;27;96304;-52
2022/07/19 05:43:00;;;;;;;62.45;51.50;;;26.50;54.00;;;;;;5012014;27;96107;-53
2022/07/19 05:45:26;;;;;;;62.75;51.55;;;26.50;54.00;;;;;;5011753;27;96513;-53
2022/07/19 05:47:52;;;;;;;62.38;51.67;;;26.50;54.10;;;;;;5008766;27;98240;-52
2022/07/19 05:50:18;;;;;;;62.65;51.70;;;26.50;54.00;;;;;;5008134;27;95820;-55
2022/07/19 05:52:43;;;;;;;62.85;51.78;;;26.50;54.00;;;;;;4999828;27;101792;-52
2022/07/19 05:55:09;;;;;;;62.15;51.72;;;26.50;53.90;;;;;;5005314;27;96640;-56
2022/07/19 05:57:35;;;;;;;63.47;51.75;;;26.50;53.90;;;;;;4999475;27;97054;-50
2022/07/19 06:00:01;;;;;;;63.15;51.75;;;26.50;53.80;;;;;;5011994;27;95193;-50
2022/07/19 06:02:26;;;;;;;63.40;51.88;;;26.50;53.70;;;;;;5009252;27;97840;-54
2022/07/19 06:04:52;;;;;;;66.05;53.20;;;26.50;53.70;;;;;;4995379;27;95779;-47
2022/07/19 06:07:17;;;;;;;71.88;53.60;;;26.60;53.70;;;;;;4998860;27;96377;-53
2022/07/19 06:09:43;;;;;;;78.78;54.05;;;26.30;53.10;;;;;;5002553;27;95136;-53
2022/07/19 06:12:09;;;;;;;77.20;54.20;;;26.10;53.40;;;;;;5007273;27;96255;-49
2022/07/19 06:14:34;;;;;;;79.50;54.58;;;25.80;54.40;;;;;;5003754;27;94844;-51
2022/07/19 06:17:00;;;;;;;72.80;53.83;;;25.70;55.10;;;;;;5003630;27;96846;-48
2022/07/19 06:19:26;;;;;;;78.68;54.17;;;25.60;55.30;;;;;;5002386;27;95009;-50
2022/07/19 06:21:52;;;;;;;76.20;54.35;;;25.70;55.70;;;;;;5001625;27;103640;-46
2022/07/19 06:24:19;;;;;;;80.90;54.22;;;25.70;55.80;;;;;;5000871;27;98959;-48
2022/07/19 06:26:44;;;;;;;81.68;54.38;;;25.60;55.40;;;;;;5001201;27;95013;-53
2022/07/19 06:29:10;;;;;;;82.65;54.13;;;25.60;55.50;;;;;;5002301;27;95910;-47
2022/07/19 06:31:36;;;;;;;81.90;54.40;;;25.60;55.80;;;;;;5001116;27;97213;-53
2022/07/19 06:34:02;;;;;;;76.90;54.53;;;25.70;54.70;;;;;;5003944;27;98537;-53
2022/07/19 06:36:27;;;;;;;77.35;53.80;;;25.70;53.50;;;;;;5004480;27;95083;-51
2022/07/19 06:38:54;;;;;;;77.80;53.85;;;25.80;53.20;;;;;;5011004;27;94647;-50
2022/07/19 06:41:20;;;;;;;78.28;54.15;;;26.00;52.20;;;;;;5003803;27;97605;-49
2022/07/19 06:43:45;;;;;;;77.68;53.83;;;26.00;51.60;;;;;;5007585;27;96607;-52
2022/07/19 06:46:11;;;;;;;78.78;53.58;;;26.10;51.50;;;;;;5001986;27;101469;-50
2022/07/19 06:48:37;;;;;;;82.72;54.08;;;26.10;50.10;;;;;;4997843;27;98043;-51
2022/07/19 06:51:05;;;;;;;73.93;53.28;;;26.20;50.10;;;;;;4994729;27;96493;-49
2022/07/19 06:53:30;;;;;;;82.82;53.95;;;26.10;50.20;;;;;;5002006;27;95333;-51
2022/07/19 06:55:56;;;;;;;79.28;53.80;;;26.20;49.80;;;;;;5016787;27;96798;-51
2022/07/19 06:58:22;;;;;;;76.93;53.50;;;26.20;50.10;;;;;;5003641;27;98295;-49
2022/07/19 07:00:51;;;;;;;78.68;53.60;;;26.20;49.80;;;;;;5000950;27;95805;-49
2022/07/19 07:03:18;;;;;;;74.93;53.45;;;26.20;49.70;;;;;;5010181;27;94412;-48
2022/07/19 07:05:44;;;;;;;75.63;53.67;;;26.30;50.20;;;;;;4991880;27;97973;-50
2022/07/19 07:08:10;;;;;;;78.57;53.63;;;26.30;49.60;;;;;;4979184;27;96001;-51
2022/07/19 07:10:36;;;;;;;74.95;54.15;;;26.40;49.40;;;;;;4980319;27;96779;-49
2022/07/19 07:13:01;;;;;;;78.15;53.60;;;26.40;50.00;;;;;;4985378;27;100676;-49
2022/07/19 07:15:27;;;;;;;71.28;52.92;;;26.50;50.10;;;;;;4979127;27;96962;-47
2022/07/19 07:17:53;;;;;;;76.00;53.83;;;26.50;50.40;;;;;;4953208;27;95027;-47
2022/07/19 07:20:19;;;;;;;78.68;53.55;;;26.50;49.30;;;;;;4988727;27;98365;-51
2022/07/19 07:22:44;;;;;;;77.90;53.35;;;26.50;49.00;;;;;;5011002;27;96319;-51
2022/07/19 07:25:10;;;;;;;74.35;53.40;;;26.50;49.20;;;;;;5006804;27;98539;-48
2022/07/19 07:27:37;;;;;;;77.38;54.10;;;26.50;49.80;;;;;;5003357;27;94405;-49
2022/07/19 07:30:03;;;;;;;70.00;53.40;;;26.50;50.00;;;;;;4993168;27;96744;-45
2022/07/19 07:32:29;;;;;;;72.82;53.65;;;26.50;50.10;;;;;;5000684;27;97396;-50
2022/07/19 07:34:55;;;;;;;70.15;53.35;;;26.50;50.10;;;;;;5006525;27;96090;-49
2022/07/19 07:37:21;;;;;;;75.25;53.92;;;26.50;50.10;;;;;;4997263;27;96688;-50
2022/07/19 07:39:46;;;;;;;71.32;53.65;;;26.60;48.60;;;;;;4991277;27;101717;-49
2022/07/19 07:42:12;;;;;;;71.18;53.35;;;26.60;48.40;;;;;;4997726;27;96545;-50
2022/07/19 07:44:38;;;;;;;74.15;53.80;;;26.60;48.50;;;;;;4990766;27;95253;-52
2022/07/19 07:47:03;;;;;;;71.88;53.22;;;26.60;48.40;;;;;;4994987;27;96075;-46
2022/07/19 07:49:30;;;;;;;73.75;53.20;;;26.60;48.40;;;;;;5009851;27;95448;-45
2022/07/19 07:51:56;;;;;;;82.82;53.45;;;26.60;48.20;;;;;;5007618;27;95233;-49
2022/07/19 07:54:21;;;;;;;71.57;53.53;;;26.60;48.20;;;;;;4987630;27;96899;-49
2022/07/19 07:56:47;;;;;;;77.35;53.83;;;26.60;48.10;;;;;;4997670;27;95813;-48
2022/07/19 07:59:12;;;;;;;71.68;53.78;;;26.70;48.30;;;;;;5011850;27;96333;-49
2022/07/19 08:01:39;;;;;;;73.70;53.53;;;26.70;48.20;;;;;;5006286;27;96465;-47
2022/07/19 08:04:05;;;;;;;73.43;53.75;;;26.70;48.80;;;;;;4996900;27;96623;-51
2022/07/19 08:06:31;;;;;;;74.80;53.53;;;26.70;48.00;;;;;;5003349;27;95973;-49
2022/07/19 08:08:59;;;;;;;72.18;53.63;;;26.70;48.00;;;;;;4999034;27;95806;-52
2022/07/19 08:11:25;;;;;;;70.63;53.58;;;26.80;48.40;;;;;;5006439;27;97957;-48
2022/07/19 08:13:51;;;;;;;76.22;53.95;;;26.80;48.10;;;;;;5004664;27;97000;-49
2022/07/19 08:16:16;;;;;;;71.65;53.63;;;26.80;48.30;;;;;;5015794;27;94336;-48
2022/07/19 08:18:43;;;;;;;74.97;53.67;;;26.80;48.20;;;;;;5011463;27;95833;-50
2022/07/19 08:21:09;;;;;;;67.90;53.53;;;26.80;47.90;;;;;;5006608;27;97872;-51
2022/07/19 08:23:35;;;;;;;76.32;53.13;;;26.80;47.90;;;;;;5007409;27;95929;-47
2022/07/19 08:26:01;;;;;;;69.10;53.63;;;26.80;47.80;;;;;;5007037;27;96745;-50
2022/07/19 08:28:26;;;;;;;77.70;53.78;;;26.80;47.80;;;;;;5011408;27;95252;-50
2022/07/19 08:30:52;;;;;;;71.55;53.47;;;26.80;47.60;;;;;;5008871;27;95154;-48
2022/07/19 08:33:18;;;;;;;69.53;53.63;;;26.90;48.10;;;;;;5009248;27;95199;-50
2022/07/19 08:35:44;;;;;;;67.72;53.35;;;26.90;47.60;;;;;;5008756;27;95865;-48
2022/07/19 08:38:10;;;;;;;71.18;53.35;;;26.90;47.50;;;;;;5014151;27;95277;-50
2022/07/19 08:40:39;;;;;;;69.82;53.63;;;26.90;47.40;;;;;;5000758;27;94497;-47
2022/07/19 08:43:05;;;;;;;67.95;53.35;;;26.90;48.10;;;;;;5004695;27;95833;-49
2022/07/19 08:45:31;;;;;;;69.28;53.60;;;26.90;47.60;;;;;;5006133;27;95839;-50
2022/07/19 08:47:58;;;;;;;74.75;53.65;;;27.00;48.20;;;;;;4997971;27;97465;-51
2022/07/19 08:50:25;;;;;;;71.97;53.55;;;27.00;47.80;;;;;;5001677;27;96139;-50
2022/07/19 08:52:52;;;;;;;74.65;53.80;;;27.00;48.70;;;;;;5001723;27;94937;-50
2022/07/19 08:55:18;;;;;;;68.45;53.53;;;26.90;47.60;;;;;;5006116;27;96675;-51
2022/07/19 08:58:02;;;;;;;73.88;53.65;;;26.90;47.50;;;;;;4993767;27;95879;-53
2022/07/19 09:00:31;;;;;;;71.45;53.53;;;27.00;47.70;;;;;;5004613;27;95313;-50
2022/07/19 09:03:02;;;;;;;69.28;53.45;;;27.00;47.70;;;;;;4991522;27;95380;-52
2022/07/19 09:05:29;;;;;;;73.85;53.40;;;27.00;47.90;;;;;;5005754;27;95857;-50
2022/07/19 09:08:11;;;;;;;70.25;53.80;;;27.00;47.70;;;;;;4993351;27;100480;-48
2022/07/19 09:10:40;;;;;;;72.13;53.85;;;27.10;47.60;;;;;;5003882;27;97412;-51
2022/07/19 09:13:12;;;;;;;78.13;54.05;;;27.00;47.60;;;;;;5001857;27;95775;-48
2022/07/19 09:15:45;;;;;;;74.70;54.35;;;27.10;47.70;;;;;;4999701;27;97342;-49
2022/07/19 09:18:16;;;;;;;71.50;53.95;;;27.10;47.50;;;;;;4997201;27;100036;-51
2022/07/19 09:20:42;;;;;;;68.07;53.38;;;27.10;47.10;;;;;;5003162;27;100177;-52
2022/07/19 09:23:08;;;;;;;72.82;54.20;;;27.10;46.90;;;;;;4982670;27;96174;-51
2022/07/19 09:25:44;;;;;;;71.60;53.67;;;27.10;46.80;;;;;;4985232;27;95430;-50
2022/07/19 09:28:10;;;;;;;71.90;53.83;;;27.20;46.50;;;;;;4982074;27;96320;-49
2022/07/19 09:30:39;;;;;;;71.28;54.15;;;27.20;46.50;;;;;;4994846;27;94961;-51
2022/07/19 09:33:17;;;;;;;72.00;53.80;;;27.20;45.80;;;;;;4995020;27;100604;-49
2022/07/19 09:35:48;;;;;;;71.05;54.28;;;27.20;45.80;;;;;;4997482;27;96459;-51
2022/07/19 09:38:19;;;;;;;66.20;53.65;;;27.20;46.70;;;;;;4995934;27;96899;-49
2022/07/19 09:40:46;;;;;;;69.18;54.03;;;27.20;45.70;;;;;;4998696;27;101339;-48
2022/07/19 09:43:11;;;;;;;66.82;53.55;;;27.20;45.50;;;;;;5001459;27;100323;-53
2022/07/19 09:45:37;;;;;;;75.03;54.20;;;27.30;45.70;;;;;;5003437;27;95670;-49
2022/07/19 09:48:03;;;;;;;70.00;53.72;;;27.30;46.40;;;;;;5004583;27;95577;-50
2022/07/19 09:50:30;;;;;;;67.63;53.70;;;27.30;46.90;;;;;;4995657;27;99377;-47
2022/07/19 09:52:58;;;;;;;67.25;53.72;;;27.30;47.20;;;;;;4998966;27;95890;-51
2022/07/19 09:55:24;;;;;;;69.57;53.50;;;27.30;47.40;;;;;;4997321;27;98476;-52
2022/07/19 09:57:51;;;;;;;72.60;54.15;;;27.30;47.70;;;;;;4997154;27;95707;-50
2022/07/19 10:00:19;;;;;;;69.55;53.88;;;27.30;48.00;;;;;;5001441;27;96653;-50
2022/07/19 10:02:50;;;;;;;69.97;54.42;;;27.40;48.40;;;;;;4995117;27;98444;-48
2022/07/19 10:05:15;;;;;;;;;;;27.40;48.60;;;;;;4999891;27;101312;-54
2022/07/19 10:07:42;;;;;;;71.32;54.45;;;27.40;49.10;;;;;;4977701;27;96704;-50
2022/07/19 10:10:10;;;;;;;69.97;54.95;;;27.50;48.70;;;;;;4979688;27;97352;-53
2022/07/19 10:12:40;;;;;;;69.30;54.22;;;27.50;49.10;;;;;;4988949;27;100988;-55
2022/07/19 10:15:08;;;;;;;72.03;54.30;;;27.50;49.30;;;;;;4964142;27;96152;-54
2022/07/19 10:18:09;;;;;;;70.60;54.13;;;27.50;49.60;;;;;;4967322;27;97182;-49
2022/07/19 10:20:36;;;;;;;71.25;54.33;;;27.40;50.10;;;;;;4972988;27;98975;-53
2022/07/19 10:23:04;;;;;;;70.53;54.60;;;27.40;49.80;;;;;;4974306;27;96146;-54
2022/07/19 10:25:48;;;;;;;68.43;54.28;;;27.50;49.70;;;;;;4974941;27;97684;-54
2022/07/19 10:28:32;;;;;;;68.78;54.03;;;27.30;49.20;;;;;;4977943;27;97472;-54
2022/07/19 10:30:58;;;;;;;70.25;53.80;;;27.20;48.70;;;;;;4973557;27;96088;-56
2022/07/19 10:33:38;;;;;;;69.07;54.17;;;27.10;48.40;;;;;;4978385;27;98067;-53
2022/07/19 10:36:38;;;;;;;67.13;53.85;;;27.10;48.40;;;;;;4974229;27;97424;-53
2022/07/19 10:39:26;;;;;;;67.35;54.53;;;27.00;47.00;;;;;;4968773;27;97888;-57
2022/07/19 10:42:10;;;;;;;66.43;53.90;;;26.90;46.20;;;;;;4969665;27;101432;-57
2022/07/19 10:44:56;;;;;;;69.03;54.05;;;26.90;45.80;;;;;;4976305;27;97212;-54
2022/07/19 10:47:22;;;;;;;68.35;53.80;;;26.90;45.50;;;;;;4976897;27;100813;-53
2022/07/19 10:49:49;;;;;;;73.22;54.33;;;27.00;46.00;;;;;;4975386;27;97111;-54
2022/07/19 10:52:27;;;;;;;72.25;54.33;;;27.10;46.00;;;;;;4959584;27;99212;-56
2022/07/19 10:55:20;;;;;;;71.75;53.95;;;27.10;45.80;;;;;;4976048;27;98975;-54
2022/07/19 10:57:49;;;;;;;66.68;53.78;;;27.20;45.80;;;;;;4960770;27;99494;-53
2022/07/19 11:00:19;;;;;;;71.88;53.75;;;27.10;45.00;;;;;;4977496;27;96181;-53
2022/07/19 11:02:47;;;;;;;69.18;53.42;;;27.10;44.20;;;;;;4974137;27;96939;-54
2022/07/19 11:05:27;;;;;;;69.45;53.72;;;27.00;44.10;;;;;;4965851;27;96059;-52
2022/07/19 11:07:55;;;;;;;66.90;53.33;;;27.00;43.90;;;;;;4984763;27;95018;-51
2022/07/19 11:10:26;;;;;;;70.68;54.25;;;26.90;43.20;;;;;;4971353;27;100931;-54
2022/07/19 11:12:54;;;;;;;70.93;54.33;;;27.00;43.80;;;;;;4979519;27;97029;-55
2022/07/19 11:15:19;;;;;;;69.15;54.47;;;27.00;44.00;;;;;;4973351;27;96919;-52
2022/07/19 11:18:00;;;;;;;69.90;54.05;;;27.00;44.00;;;;;;4987817;27;96892;-56
2022/07/19 11:20:29;;;;;;;71.25;54.13;;;26.90;43.60;;;;;;4975693;27;98125;-54
2022/07/19 11:22:56;;;;;;;71.60;54.30;;;26.90;43.00;;;;;;4970482;27;96843;-54
2022/07/19 11:25:25;;;;;;;71.30;53.97;;;26.90;43.20;;;;;;4976388;27;95329;-56
2022/07/19 11:27:51;;;;;;;68.90;53.90;;;26.80;43.30;;;;;;4976735;27;96420;-56
2022/07/19 11:30:16;;;;;;;70.72;54.03;;;27.00;43.50;;;;;;4981405;27;96998;-53
2022/07/19 11:32:49;;;;;;;67.75;53.97;;;27.00;43.60;;;;;;4975736;27;97565;-54
2022/07/19 11:35:16;;;;;;;71.13;54.15;;;26.90;43.50;;;;;;4981494;27;101067;-56
2022/07/19 11:37:43;;;;;;;67.60;53.78;;;26.90;44.00;;;;;;4978052;27;96836;-53
2022/07/19 11:40:11;;;;;;;68.80;53.72;;;26.90;44.40;;;;;;4974698;27;99849;-55
2022/07/19 11:42:41;;;;;;;68.75;53.50;;;26.90;44.70;;;;;;4979579;27;97944;-51
2022/07/19 11:45:14;;;;;;;67.82;53.70;;;26.80;44.00;;;;;;4975566;27;97660;-55
2022/07/19 11:47:50;;;;;;;68.22;53.67;;;26.80;44.20;;;;;;4976026;27;96680;-52
2022/07/19 11:50:18;;;;;;;66.95;53.60;;;26.80;44.30;;;;;;4980081;27;96036;-52
2022/07/19 11:52:53;;;;;;;66.47;53.40;;;26.80;44.30;;;;;;4977628;27;95826;-54
2022/07/19 11:55:38;;;;;;;66.10;53.80;;;26.80;44.30;;;;;;4983495;27;96952;-55
2022/07/19 11:58:10;;;;;;;67.03;53.85;;;26.80;44.30;;;;;;4979809;27;95779;-55
2022/07/19 12:00:37;;;;;;;67.38;54.03;;;26.70;44.50;;;;;;4982578;27;97489;-52
2022/07/19 12:03:06;;;;;;;67.80;53.33;;;26.70;45.00;;;;;;4983553;27;96362;-52
2022/07/19 12:05:35;;;;;;;69.70;53.70;;;26.70;44.50;;;;;;4973426;27;95560;-54
2022/07/19 12:08:06;;;;;;;69.40;53.70;;;26.70;44.40;;;;;;4978896;27;99268;-54
2022/07/19 12:10:43;;;;;;;67.40;53.58;;;26.70;44.30;;;;;;4974439;27;101780;-53
2022/07/19 12:13:14;;;;;;;68.32;53.70;;;26.80;44.50;;;;;;4976522;27;95329;-51
2022/07/19 12:15:46;;;;;;;66.97;53.80;;;26.80;44.50;;;;;;4989824;27;96465;-51
2022/07/19 12:18:12;;;;;;;66.47;53.53;;;26.90;44.30;;;;;;4990424;27;95653;-52
2022/07/19 12:20:38;;;;;;;69.43;53.53;;;26.80;44.00;;;;;;4979958;27;98596;-52
2022/07/19 12:23:16;;;;;;;70.90;53.50;;;26.90;43.90;;;;;;4965596;27;95921;-53
2022/07/19 12:25:42;;;;;;;70.85;53.53;;;26.90;44.00;;;;;;4976516;27;97249;-56
2022/07/19 12:28:08;;;;;;;67.03;53.72;;;26.80;44.00;;;;;;4986746;27;95024;-54
2022/07/19 12:30:33;;;;;;;69.55;53.92;;;26.80;43.80;;;;;;4980850;27;101376;-56
2022/07/19 12:33:06;;;;;;;69.40;54.42;;;26.90;44.00;;;;;;4981524;27;96917;-52
2022/07/19 12:35:42;;;;;;;70.30;53.28;;;27.00;44.50;;;;;;4988523;27;98523;-56